Time;durP1;ratioP1;P1;durP2;ratioP2;P2;SDS_P1;SDS_P2;PMS_P1;PMS_P2;Temp;Humidity;BMP_temperature;BMP_pressure;BME280_temperature;BME280_humidity;BME280_pressure;Samples;Min_cycle;Max_cycle;Signal;HPM_P1;HPM_P2
2022/05/17 00:01:03;;;;;;;1.92;1.75;;;19.40;99.90;;;;;;5053449;28;20251;-87
2022/05/17 00:03:34;;;;;;;5.00;2.17;;;19.40;99.90;;;;;;5053156;28;20233;-87
2022/05/17 00:06:04;;;;;;;3.17;2.08;;;19.40;99.90;;;;;;5053476;28;20202;-87
2022/05/17 00:08:33;;;;;;;2.50;2.30;;;19.40;99.90;;;;;;5053295;28;20202;-87
2022/05/17 00:11:02;;;;;;;2.08;1.90;;;19.40;99.90;;;;;;5053027;28;20228;-87
2022/05/17 00:13:30;;;;;;;5.57;2.30;;;19.40;99.90;;;;;;5053399;28;20292;-87
2022/05/17 00:16:01;;;;;;;2.13;1.92;;;19.40;99.90;;;;;;5053447;28;20297;-87
2022/05/17 00:18:30;;;;;;;2.13;1.92;;;19.40;99.90;;;;;;5053414;28;20225;-87
2022/05/17 00:21:00;;;;;;;2.03;1.90;;;19.40;99.90;;;;;;5052912;28;20224;-88
2022/05/17 00:23:28;;;;;;;7.35;1.92;;;19.30;99.90;;;;;;5052680;28;20218;-87
2022/05/17 00:25:57;;;;;;;2.08;1.63;;;19.30;99.90;;;;;;5053183;28;20292;-87
2022/05/17 00:28:26;;;;;;;2.85;2.00;;;19.30;99.90;;;;;;5053419;28;20292;-87
2022/05/17 00:30:54;;;;;;;7.93;2.03;;;19.40;99.90;;;;;;5053394;28;20210;-87
2022/05/17 00:33:22;;;;;;;1.55;1.45;;;19.40;99.90;;;;;;5052616;28;20260;-87
2022/05/17 00:35:51;;;;;;;2.33;1.95;;;19.40;99.90;;;;;;5052897;28;20309;-87
2022/05/17 00:38:21;;;;;;;3.53;2.10;;;19.40;99.90;;;;;;5053090;28;20263;-88
2022/05/17 00:40:50;;;;;;;2.90;1.88;;;19.40;99.90;;;;;;5052956;28;20201;-87
2022/05/17 00:43:29;;;;;;;1.58;1.48;;;19.40;99.90;;;;;;5053387;28;20222;-87
2022/05/17 00:46:02;;;;;;;2.38;1.77;;;19.50;99.90;;;;;;5051714;28;20262;-87
2022/05/17 00:48:31;;;;;;;4.03;1.90;;;19.50;99.90;;;;;;5052929;28;20257;-87
2022/05/17 00:50:59;;;;;;;3.17;1.85;;;19.50;99.90;;;;;;5052177;28;20257;-87
2022/05/17 00:53:34;;;;;;;1.67;1.58;;;19.60;99.90;;;;;;5052076;28;20222;-88
2022/05/17 00:56:09;;;;;;;2.25;1.80;;;19.50;99.90;;;;;;5053342;28;20205;-88
2022/05/17 00:58:44;;;;;;;1.90;1.77;;;19.50;99.90;;;;;;5053175;28;20232;-88
2022/05/17 01:01:15;;;;;;;5.35;1.83;;;19.60;99.90;;;;;;5052792;28;20257;-87
2022/05/17 01:03:50;;;;;;;2.15;1.95;;;19.60;99.90;;;;;;5052718;28;20250;-87
2022/05/17 01:06:19;;;;;;;1.45;1.35;;;19.60;99.90;;;;;;5052700;28;20359;-88
2022/05/17 01:08:50;;;;;;;3.47;1.95;;;19.50;99.90;;;;;;5053016;28;20225;-88
2022/05/17 01:11:18;;;;;;;1.98;1.60;;;19.50;99.90;;;;;;5052399;28;20226;-88
2022/05/17 01:16:33;;;;;;;1.80;1.70;;;19.50;99.90;;;;;;5052592;28;20286;-88
2022/05/17 01:19:01;;;;;;;1.98;1.77;;;19.50;99.90;;;;;;5052546;28;20205;-88
2022/05/17 01:21:32;;;;;;;4.60;1.88;;;19.40;99.90;;;;;;5052570;28;20205;-88
2022/05/17 01:24:00;;;;;;;6.30;2.33;;;19.40;99.90;;;;;;5052435;28;20311;-88
2022/05/17 01:26:31;;;;;;;2.40;1.80;;;19.40;99.90;;;;;;5052598;28;20210;-88
2022/05/17 01:28:59;;;;;;;2.35;2.10;;;19.40;99.90;;;;;;5052458;28;20259;-87
2022/05/17 01:31:30;;;;;;;1.67;1.52;;;19.50;99.90;;;;;;5052455;28;20230;-88
2022/05/17 01:33:58;;;;;;;1.98;1.83;;;19.50;99.90;;;;;;5053250;28;20246;-88
2022/05/17 01:36:27;;;;;;;3.10;2.20;;;19.50;99.90;;;;;;5055559;28;20301;-87
2022/05/17 01:38:57;;;;;;;1.80;1.65;;;19.50;99.90;;;;;;5056415;28;20237;-87
2022/05/17 01:41:25;;;;;;;1.83;1.55;;;19.50;99.90;;;;;;5055883;28;20230;-87
2022/05/17 01:43:54;;;;;;;3.97;1.92;;;19.50;99.90;;;;;;5056093;28;20218;-88
2022/05/17 01:46:22;;;;;;;2.20;1.70;;;19.40;99.90;;;;;;5055731;28;20232;-87
2022/05/17 01:48:51;;;;;;;7.00;1.95;;;19.40;99.90;;;;;;5056052;28;20271;-88
2022/05/17 01:51:21;;;;;;;2.25;1.60;;;19.40;99.90;;;;;;5056047;28;20202;-88
2022/05/17 01:53:49;;;;;;;3.42;2.53;;;19.30;99.90;;;;;;5056017;28;20319;-88
2022/05/17 01:56:19;;;;;;;3.83;2.45;;;19.20;99.90;;;;;;5036134;28;20296;-88
2022/05/17 01:58:48;;;;;;;4.45;1.65;;;19.10;99.90;;;;;;5035929;28;20187;-87
2022/05/17 02:01:16;;;;;;;1.65;1.55;;;18.90;99.90;;;;;;5036694;28;20210;-88
2022/05/17 02:03:45;;;;;;;2.42;1.88;;;18.70;99.90;;;;;;5035632;28;20229;-87
2022/05/17 02:06:14;;;;;;;2.42;2.20;;;18.60;99.90;;;;;;5038643;28;20225;-88
2022/05/17 02:08:42;;;;;;;2.30;2.05;;;18.60;99.90;;;;;;5055398;28;20297;-88
2022/05/17 02:11:10;;;;;;;2.78;2.13;;;18.60;99.90;;;;;;5055689;28;20309;-89
2022/05/17 02:13:41;;;;;;;1.85;1.75;;;18.60;99.90;;;;;;5055003;28;20317;-88
2022/05/17 02:16:10;;;;;;;2.22;1.63;;;18.60;99.90;;;;;;5055668;28;20205;-88
2022/05/17 02:18:38;;;;;;;2.20;2.00;;;18.70;99.90;;;;;;5055556;28;20210;-88
2022/05/17 02:21:07;;;;;;;3.58;1.90;;;18.70;99.90;;;;;;5055192;28;20201;-88
2022/05/17 02:23:35;;;;;;;1.90;1.80;;;18.70;99.90;;;;;;5055230;28;20317;-88
2022/05/17 02:26:04;;;;;;;4.10;2.05;;;18.70;99.90;;;;;;5055246;28;20206;-88
2022/05/17 02:28:32;;;;;;;2.95;2.10;;;18.70;99.90;;;;;;5055343;28;20226;-88
2022/05/17 02:31:02;;;;;;;2.78;1.88;;;18.80;99.90;;;;;;5055168;28;20201;-88
2022/05/17 02:33:31;;;;;;;1.75;1.65;;;18.80;99.90;;;;;;5055084;28;20218;-88
2022/05/17 02:35:59;;;;;;;2.28;1.98;;;18.80;99.90;;;;;;5055045;28;20198;-88
2022/05/17 02:38:27;;;;;;;2.72;1.83;;;18.80;99.90;;;;;;5053964;28;20281;-87
2022/05/17 02:40:56;;;;;;;1.75;1.63;;;18.80;99.90;;;;;;5054720;28;20217;-88
2022/05/17 02:43:24;;;;;;;1.95;1.80;;;18.80;99.90;;;;;;5055262;28;20233;-88
2022/05/17 02:45:54;;;;;;;3.95;2.00;;;18.80;99.90;;;;;;5055193;28;20221;-88
2022/05/17 02:48:24;;;;;;;2.45;1.83;;;18.80;99.90;;;;;;5055949;28;20244;-88
2022/05/17 02:50:52;;;;;;;1.80;1.70;;;18.80;99.90;;;;;;5056681;28;20269;-89
2022/05/17 02:53:21;;;;;;;1.60;1.50;;;18.80;99.90;;;;;;5055874;28;20264;-88
2022/05/17 02:55:49;;;;;;;8.60;1.98;;;18.80;99.90;;;;;;5055866;28;20273;-88
2022/05/17 02:58:18;;;;;;;2.45;1.67;;;18.80;99.90;;;;;;5054798;28;20255;-89
2022/05/17 03:00:46;;;;;;;2.63;2.22;;;18.80;99.90;;;;;;5054665;28;20233;-88
2022/05/17 03:03:14;;;;;;;2.40;2.03;;;18.80;99.90;;;;;;5054265;28;20241;-88
2022/05/17 03:05:44;;;;;;;1.88;1.77;;;18.70;99.90;;;;;;5054321;28;20259;-89
2022/05/17 03:08:13;;;;;;;2.78;1.77;;;18.70;99.90;;;;;;5054621;28;20241;-88
2022/05/17 03:10:41;;;;;;;2.13;1.92;;;18.70;99.90;;;;;;5054210;28;20205;-87
2022/05/17 03:13:11;;;;;;;1.60;1.50;;;18.70;99.90;;;;;;5054165;28;20276;-88
2022/05/17 03:15:39;;;;;;;3.83;2.47;;;18.60;99.90;;;;;;5054529;28;20251;-89
2022/05/17 03:18:08;;;;;;;3.33;2.33;;;18.50;99.90;;;;;;5054121;28;20224;-88
2022/05/17 03:20:36;;;;;;;3.72;2.35;;;18.40;99.90;;;;;;5055851;28;20288;-91
2022/05/17 03:23:06;;;;;;;2.38;2.15;;;18.00;99.90;;;;;;5054666;28;20222;-91
2022/05/17 03:25:35;;;;;;;3.17;2.70;;;17.50;99.90;;;;;;5054184;28;20194;-90
2022/05/17 03:28:04;;;;;;;3.25;2.95;;;17.00;99.90;;;;;;5054366;28;20242;-89
2022/05/17 03:30:33;;;;;;;16.30;3.05;;;16.70;99.90;;;;;;5053423;28;20209;-89
2022/05/17 03:33:02;;;;;;;3.15;2.80;;;16.40;99.90;;;;;;5053202;28;20304;-90
2022/05/17 03:35:33;;;;;;;4.28;2.70;;;16.30;99.90;;;;;;5053426;28;20197;-88
2022/05/17 03:38:02;;;;;;;3.53;2.78;;;16.30;99.90;;;;;;5053970;28;20209;-88
2022/05/17 03:40:32;;;;;;;3.90;2.67;;;16.20;99.90;;;;;;5053836;28;20265;-88
2022/05/17 03:43:00;;;;;;;3.42;3.13;;;16.20;99.90;;;;;;5053761;28;20253;-87
2022/05/17 03:45:29;;;;;;;3.35;3.05;;;16.10;99.90;;;;;;5053763;28;20287;-87
2022/05/17 03:47:57;;;;;;;4.53;3.33;;;16.00;99.90;;;;;;5053615;28;20221;-88
2022/05/17 03:50:26;;;;;;;4.18;3.25;;;16.10;99.90;;;;;;5053672;28;20244;-87
2022/05/17 03:52:55;;;;;;;5.40;3.70;;;16.00;99.90;;;;;;5054037;28;20218;-87
2022/05/17 03:55:24;;;;;;;3.42;3.13;;;16.00;99.90;;;;;;5053276;28;20222;-87
2022/05/17 03:57:53;;;;;;;4.53;3.47;;;16.00;99.90;;;;;;5052824;28;20232;-88
2022/05/17 04:00:22;;;;;;;6.32;3.50;;;16.00;99.90;;;;;;5052994;28;20230;-88
2022/05/17 04:02:50;;;;;;;3.50;3.22;;;16.00;99.90;;;;;;5053722;28;20279;-87
2022/05/17 04:05:19;;;;;;;3.55;3.22;;;16.00;99.90;;;;;;5053198;28;20278;-88
2022/05/17 04:07:49;;;;;;;4.25;3.85;;;16.00;99.90;;;;;;5053625;28;20205;-87
2022/05/17 04:10:18;;;;;;;4.05;3.65;;;16.00;99.90;;;;;;5053228;28;20210;-89
2022/05/17 04:12:47;;;;;;;4.57;3.80;;;16.00;99.90;;;;;;5053034;28;20222;-88
2022/05/17 04:15:20;;;;;;;10.20;4.18;;;16.00;99.90;;;;;;5053232;28;20253;-87
2022/05/17 04:17:49;;;;;;;4.10;3.25;;;16.00;99.90;;;;;;5053721;28;20281;-88
2022/05/17 04:20:19;;;;;;;4.63;3.97;;;16.00;99.90;;;;;;5053027;28;20201;-88
2022/05/17 04:22:49;;;;;;;3.60;3.30;;;16.00;99.90;;;;;;5053333;28;20275;-88
2022/05/17 04:25:20;;;;;;;3.53;3.28;;;16.00;99.90;;;;;;5053349;28;20292;-88
2022/05/17 04:27:50;;;;;;;7.97;2.80;;;16.10;99.90;;;;;;5053244;28;20284;-88
2022/05/17 04:30:21;;;;;;;3.10;2.78;;;16.00;99.90;;;;;;5052288;28;20193;-88
2022/05/17 04:32:49;;;;;;;4.03;2.85;;;16.00;99.90;;;;;;5052630;28;20267;-89
2022/05/17 04:35:19;;;;;;;2.80;2.60;;;16.10;99.90;;;;;;5052892;28;20218;-89
2022/05/17 04:37:50;;;;;;;3.25;2.95;;;16.00;99.90;;;;;;5052802;28;20224;-89
2022/05/17 04:40:19;;;;;;;2.75;2.47;;;16.10;99.90;;;;;;5052966;28;20202;-89
2022/05/17 04:42:47;;;;;;;2.22;2.03;;;16.10;99.90;;;;;;5053064;28;20249;-90
2022/05/17 04:45:20;;;;;;;3.33;2.70;;;16.10;99.90;;;;;;5053113;28;20233;-88
2022/05/17 04:48:10;;;;;;;2.45;2.28;;;16.10;99.90;;;;;;5053168;28;20192;-89
2022/05/17 04:50:38;;;;;;;4.18;2.30;;;16.00;99.90;;;;;;5052670;28;20210;-89
2022/05/17 04:53:07;;;;;;;7.38;3.15;;;16.00;99.90;;;;;;5053200;28;20234;-87
2022/05/17 04:55:35;;;;;;;2.22;2.08;;;16.10;99.90;;;;;;5052988;28;20222;-88
2022/05/17 04:58:36;;;;;;;2.28;2.17;;;16.10;99.90;;;;;;5053139;28;20220;-89
2022/05/17 05:01:12;;;;;;;2.70;2.50;;;16.10;99.90;;;;;;5032949;28;20233;-88
2022/05/17 05:04:46;;;;;;;2.63;2.30;;;16.10;99.90;;;;;;5033099;28;20226;-89
2022/05/17 05:07:16;;;;;;;3.85;3.08;;;16.20;99.90;;;;;;5009717;28;20229;-88
2022/05/17 05:09:44;;;;;;;2.88;2.55;;;16.20;99.90;;;;;;5035469;28;20301;-89
2022/05/17 05:12:13;;;;;;;4.30;2.83;;;16.10;99.90;;;;;;5036644;28;20202;-87
2022/05/17 05:14:41;;;;;;;4.25;3.25;;;16.20;99.90;;;;;;5049271;28;20245;-87
2022/05/17 05:17:10;;;;;;;2.97;2.67;;;16.10;99.90;;;;;;5056192;28;20279;-90
2022/05/17 05:19:38;;;;;;;2.60;2.40;;;16.20;99.90;;;;;;5056352;28;20293;-90
2022/05/17 05:22:06;;;;;;;2.88;2.67;;;16.20;99.90;;;;;;5056230;28;20255;-88
2022/05/17 05:24:36;;;;;;;3.38;2.83;;;16.30;99.90;;;;;;5056367;28;20240;-90
2022/05/17 05:27:05;;;;;;;3.13;2.92;;;16.30;99.90;;;;;;5056586;28;20221;-90
2022/05/17 05:29:35;;;;;;;2.78;2.58;;;16.40;99.90;;;;;;5056088;28;20288;-94
2022/05/17 05:32:06;;;;;;;3.33;3.03;;;16.30;99.90;;;;;;5056328;28;20284;-96
2022/05/17 05:34:34;;;;;;;3.08;2.85;;;16.20;99.90;;;;;;5057437;28;20217;-93
2022/05/17 05:37:03;;;;;;;3.17;2.88;;;16.20;99.90;;;;;;5056349;28;20351;-90
2022/05/17 05:39:32;;;;;;;3.03;2.83;;;16.00;99.90;;;;;;5056259;28;20275;-90
2022/05/17 05:42:04;;;;;;;6.38;3.60;;;15.90;99.90;;;;;;5056140;28;20275;-89
2022/05/17 05:44:33;;;;;;;3.97;3.60;;;15.90;99.90;;;;;;5053049;28;20256;-90
2022/05/17 05:47:06;;;;;;;4.07;3.67;;;15.80;99.90;;;;;;5052851;28;20293;-90
2022/05/17 05:49:34;;;;;;;4.47;3.70;;;15.80;99.90;;;;;;5052931;28;20244;-89
2022/05/17 05:52:02;;;;;;;4.20;3.85;;;15.80;99.90;;;;;;5053190;28;20221;-89
2022/05/17 05:54:31;;;;;;;6.57;4.35;;;15.90;99.90;;;;;;5052523;28;20252;-88
2022/05/17 05:57:00;;;;;;;6.43;4.50;;;15.90;99.90;;;;;;5053046;28;20237;-88
2022/05/17 05:59:31;;;;;;;4.72;4.32;;;15.90;99.90;;;;;;5054460;28;20225;-88
2022/05/17 06:02:00;;;;;;;4.60;4.20;;;16.00;99.90;;;;;;5054761;28;20205;-89
2022/05/17 06:04:28;;;;;;;3.95;3.65;;;16.00;99.90;;;;;;5054912;28;20226;-88
2022/05/17 06:06:57;;;;;;;4.95;4.50;;;16.00;99.90;;;;;;5054927;28;20297;-89
2022/05/17 06:09:26;;;;;;;4.18;3.53;;;16.20;99.90;;;;;;5054661;28;20209;-89
2022/05/17 06:11:55;;;;;;;3.50;3.28;;;16.10;99.90;;;;;;5054427;28;20198;-89
2022/05/17 06:14:23;;;;;;;4.70;4.18;;;16.20;99.90;;;;;;5054421;28;20226;-88
2022/05/17 06:16:53;;;;;;;14.93;4.63;;;16.20;99.90;;;;;;5054554;28;20232;-88
2022/05/17 06:19:24;;;;;;;4.53;4.13;;;16.20;99.90;;;;;;5054493;28;20259;-88
2022/05/17 06:21:52;;;;;;;4.05;3.75;;;16.30;99.90;;;;;;5054300;28;20264;-88
2022/05/17 06:24:20;;;;;;;3.75;3.45;;;16.30;99.90;;;;;;5054463;28;20252;-88
2022/05/17 06:26:49;;;;;;;4.38;3.95;;;16.40;99.90;;;;;;5054433;28;20198;-88
2022/05/17 06:29:18;;;;;;;4.15;3.85;;;16.50;99.90;;;;;;5054591;28;20236;-88
2022/05/17 06:31:46;;;;;;;4.25;3.28;;;16.60;99.90;;;;;;5054546;28;20214;-88
2022/05/17 06:34:16;;;;;;;4.30;3.95;;;16.60;99.90;;;;;;5054427;28;20295;-87
2022/05/17 06:36:44;;;;;;;4.28;3.88;;;16.70;99.90;;;;;;5053628;28;20257;-88
2022/05/17 06:39:21;;;;;;;6.50;4.05;;;16.80;99.90;;;;;;5054198;28;20201;-88
2022/05/17 06:41:51;;;;;;;4.70;4.30;;;16.90;99.90;;;;;;5053726;28;20202;-88
2022/05/17 06:44:19;;;;;;;4.07;3.78;;;17.00;99.90;;;;;;5054095;28;20291;-88
2022/05/17 06:46:47;;;;;;;5.07;4.47;;;17.10;99.90;;;;;;5054442;28;20285;-87
2022/05/17 06:49:17;;;;;;;4.85;4.32;;;17.20;99.90;;;;;;5053561;28;20232;-88
2022/05/17 06:51:46;;;;;;;4.18;3.88;;;17.30;99.90;;;;;;5053493;28;20304;-88
2022/05/17 06:54:14;;;;;;;4.47;3.78;;;17.50;99.90;;;;;;5053104;28;20249;-87
2022/05/17 06:56:42;;;;;;;4.40;4.00;;;17.50;99.90;;;;;;5053570;28;20229;-87
2022/05/17 06:59:11;;;;;;;4.93;4.53;;;17.50;99.90;;;;;;5053878;28;20283;-87
2022/05/17 07:01:39;;;;;;;3.95;3.60;;;17.60;99.90;;;;;;5053510;28;20201;-88
2022/05/17 07:04:08;;;;;;;4.70;4.30;;;17.60;99.90;;;;;;5053727;28;20246;-87
2022/05/17 07:06:38;;;;;;;7.88;4.45;;;17.50;99.90;;;;;;5053670;28;20284;-88
2022/05/17 07:09:06;;;;;;;5.30;4.00;;;17.50;99.90;;;;;;5053801;28;20312;-88
2022/05/17 07:14:20;;;;;;;4.15;3.85;;;17.50;99.90;;;;;;5054044;28;20268;-87
2022/05/17 07:16:48;;;;;;;4.60;4.18;;;17.50;99.90;;;;;;5053495;28;20317;-87
2022/05/17 07:19:16;;;;;;;4.95;4.45;;;17.60;99.90;;;;;;5053765;28;20225;-87
2022/05/17 07:22:03;;;;;;;3.95;3.65;;;17.70;99.90;;;;;;5053249;28;20213;-87
2022/05/17 07:24:32;;;;;;;5.20;4.10;;;17.90;99.90;;;;;;5053818;28;20272;-87
2022/05/17 07:27:01;;;;;;;4.65;3.83;;;18.00;99.90;;;;;;5053900;28;20222;-87
2022/05/17 07:29:47;;;;;;;3.95;3.55;;;18.10;99.90;;;;;;5054061;28;20197;-87
2022/05/17 07:32:15;;;;;;;19.90;3.88;;;18.20;99.90;;;;;;5052804;28;20205;-87
2022/05/17 07:34:43;;;;;;;7.75;4.28;;;18.30;99.90;;;;;;5053254;28;20230;-87
2022/05/17 07:37:13;;;;;;;5.22;4.63;;;18.40;99.90;;;;;;5053285;28;20248;-86
2022/05/17 07:39:41;;;;;;;3.70;3.40;;;18.40;99.90;;;;;;5053437;28;20251;-88
2022/05/17 07:42:11;;;;;;;3.72;3.30;;;18.40;99.90;;;;;;5053151;28;20225;-88
2022/05/17 07:44:39;;;;;;;3.88;3.58;;;18.60;99.90;;;;;;5053371;28;20206;-87
2022/05/17 07:47:12;;;;;;;4.97;3.47;;;18.70;99.90;;;;;;5053103;28;20206;-87
2022/05/17 07:49:42;;;;;;;5.90;4.22;;;18.80;99.90;;;;;;5053145;28;20271;-87
2022/05/17 07:52:11;;;;;;;5.82;3.97;;;18.80;99.90;;;;;;5053095;28;20260;-88
2022/05/17 07:54:43;;;;;;;4.55;4.15;;;18.80;99.90;;;;;;5053129;28;20201;-87
2022/05/17 07:57:11;;;;;;;4.72;4.18;;;18.80;99.90;;;;;;5052842;28;20226;-87
2022/05/17 07:59:41;;;;;;;5.00;4.18;;;18.60;99.90;;;;;;5052856;28;20205;-87
2022/05/17 08:02:09;;;;;;;6.10;4.28;;;18.60;99.90;;;;;;5052606;28;20255;-87
2022/05/17 08:04:38;;;;;;;4.32;3.95;;;18.80;99.90;;;;;;5052718;28;20232;-87
2022/05/17 08:07:08;;;;;;;4.75;4.38;;;18.90;99.90;;;;;;5053107;28;20269;-88
2022/05/17 08:09:37;;;;;;;4.65;4.25;;;18.90;99.90;;;;;;5052784;28;20236;-88
2022/05/17 08:12:10;;;;;;;4.72;4.22;;;18.90;99.90;;;;;;5052952;28;20205;-87
2022/05/17 08:14:41;;;;;;;4.85;4.45;;;18.90;99.90;;;;;;5052549;28;20212;-87
2022/05/17 08:17:09;;;;;;;4.60;3.58;;;18.80;99.90;;;;;;5052853;28;20304;-87
2022/05/17 08:19:39;;;;;;;7.10;3.75;;;18.70;99.90;;;;;;5053065;28;20202;-87
2022/05/17 08:22:09;;;;;;;4.50;4.10;;;18.60;99.90;;;;;;5052660;28;20201;-88
2022/05/17 08:27:36;;;;;;;4.10;3.80;;;18.60;99.90;;;;;;5051703;28;20319;-87
2022/05/17 08:30:09;;;;;;;4.55;4.15;;;18.60;99.90;;;;;;5052580;28;20225;-87
2022/05/17 08:35:31;;;;;;;4.00;3.67;;;18.80;99.90;;;;;;5053258;28;20210;-87
2022/05/17 08:37:59;;;;;;;4.70;3.22;;;19.10;99.90;;;;;;5052364;28;20247;-87
2022/05/17 08:40:31;;;;;;;3.13;2.50;;;19.20;99.90;;;;;;5052060;28;20229;-87
2022/05/17 08:43:11;;;;;;;4.15;3.45;;;19.30;99.90;;;;;;5053829;28;20289;-86
2022/05/17 08:45:48;;;;;;;2.95;2.65;;;19.50;99.90;;;;;;5056578;28;20211;-87
2022/05/17 08:48:18;;;;;;;2.97;2.72;;;19.50;99.90;;;;;;5057017;28;20237;-86
2022/05/17 08:50:50;;;;;;;3.22;2.92;;;19.00;99.90;;;;;;5057459;28;20221;-87
2022/05/17 08:53:20;;;;;;;3.20;2.90;;;18.80;99.90;;;;;;5056534;28;20237;-87
2022/05/17 08:55:51;;;;;;;3.10;2.80;;;18.70;99.90;;;;;;5056118;28;20284;-88
2022/05/17 08:58:25;;;;;;;8.30;2.83;;;18.60;99.90;;;;;;5056575;28;20312;-85
2022/05/17 09:00:56;;;;;;;3.40;2.83;;;18.60;99.90;;;;;;5056653;28;20213;-87
2022/05/17 09:03:36;;;;;;;3.13;2.83;;;18.70;99.90;;;;;;5056294;28;20242;-86
2022/05/17 09:06:12;;;;;;;4.45;2.58;;;18.80;99.90;;;;;;5056444;28;20300;-86
2022/05/17 09:08:46;;;;;;;3.47;3.03;;;19.00;99.90;;;;;;5056131;28;20236;-87
2022/05/17 09:11:23;;;;;;;2.70;2.50;;;18.90;99.90;;;;;;5055822;28;20201;-86
2022/05/17 09:14:03;;;;;;;2.92;2.60;;;19.00;99.90;;;;;;5056282;28;20298;-88
2022/05/17 09:16:38;;;;;;;2.95;2.70;;;19.00;99.90;;;;;;5056546;28;20209;-87
2022/05/17 09:19:07;;;;;;;4.88;2.85;;;19.10;99.90;;;;;;5055755;28;20229;-87
2022/05/17 09:21:37;;;;;;;2.78;2.58;;;19.20;99.90;;;;;;5055532;28;20225;-86
2022/05/17 09:24:08;;;;;;;3.45;3.15;;;19.30;99.90;;;;;;5055778;28;20272;-86
2022/05/17 09:26:37;;;;;;;3.08;2.88;;;19.50;99.90;;;;;;5055945;28;20263;-87
2022/05/17 09:29:16;;;;;;;3.50;3.20;;;19.80;99.90;;;;;;5055852;28;20226;-87
2022/05/17 09:31:52;;;;;;;4.13;3.30;;;19.80;99.90;;;;;;5055572;28;20236;-86
2022/05/17 09:34:30;;;;;;;2.70;2.50;;;20.10;99.90;;;;;;5055637;28;20293;-87
2022/05/17 09:37:06;;;;;;;3.22;2.95;;;20.70;99.90;;;;;;5055508;28;20241;-86
2022/05/17 09:39:34;;;;;;;3.03;2.60;;;21.40;99.90;;;;;;5055579;28;20287;-87
2022/05/17 09:42:04;;;;;;;3.28;2.53;;;21.70;99.90;;;;;;5055590;28;20263;-87
2022/05/17 09:44:45;;;;;;;3.53;3.20;;;21.90;99.90;;;;;;5055800;28;20271;-87
2022/05/17 09:47:31;;;;;;;3.75;2.97;;;21.50;99.90;;;;;;5055418;28;20236;-88
2022/05/17 09:53:01;;;;;;;3.25;3.05;;;21.30;99.90;;;;;;5055112;28;20309;-87
2022/05/17 09:55:31;;;;;;;3.70;3.30;;;21.10;99.90;;;;;;5054613;28;20261;-87
2022/05/17 09:58:03;;;;;;;3.50;3.20;;;20.80;99.90;;;;;;5055121;28;20218;-87
2022/05/17 10:00:41;;;;;;;4.25;3.90;;;20.20;99.90;;;;;;5055323;28;20205;-86
2022/05/17 10:03:28;;;;;;;3.95;3.65;;;19.80;99.90;;;;;;5054736;28;20221;-87
2022/05/17 10:06:00;;;;;;;5.03;4.30;;;19.30;99.90;;;;;;5054925;28;20293;-87
2022/05/17 10:08:41;;;;;;;4.65;4.18;;;18.90;99.90;;;;;;5055179;28;20275;-87
2022/05/17 10:11:18;;;;;;;4.32;4.00;;;18.70;99.90;;;;;;5054986;28;20230;-87
2022/05/17 10:13:55;;;;;;;4.72;4.03;;;18.50;99.90;;;;;;5054809;28;20309;-87
2022/05/17 10:16:31;;;;;;;4.75;4.32;;;18.50;99.90;;;;;;5054949;28;20218;-87
2022/05/17 10:19:03;;;;;;;5.43;4.57;;;18.50;99.90;;;;;;5054560;28;20229;-87
2022/05/17 10:21:39;;;;;;;4.70;3.83;;;18.60;99.90;;;;;;5054620;28;20286;-86
2022/05/17 10:24:17;;;;;;;5.13;3.30;;;18.80;99.90;;;;;;5054823;28;20245;-87
2022/05/17 10:26:51;;;;;;;4.50;4.10;;;19.20;99.90;;;;;;5054750;28;20292;-86
2022/05/17 10:29:27;;;;;;;4.72;3.72;;;19.80;99.90;;;;;;5054721;28;20240;-86
2022/05/17 10:32:06;;;;;;;3.90;3.60;;;20.20;99.90;;;;;;5054525;28;20229;-86
2022/05/17 10:35:01;;;;;;;3.80;3.50;;;20.00;99.90;;;;;;5054823;28;20206;-86
2022/05/17 10:37:34;;;;;;;5.65;4.22;;;19.50;99.90;;;;;;5054342;28;20259;-87
2022/05/17 10:40:07;;;;;;;3.95;3.65;;;19.30;99.90;;;;;;5054645;28;20293;-86
2022/05/17 10:42:38;;;;;;;3.83;3.50;;;19.20;99.90;;;;;;5054379;28;20226;-86
2022/05/17 10:45:10;;;;;;;4.10;3.80;;;19.20;99.90;;;;;;5054498;28;20213;-86
2022/05/17 10:47:51;;;;;;;4.90;4.13;;;19.10;99.90;;;;;;5054485;28;20221;-86
2022/05/17 10:50:30;;;;;;;4.03;3.72;;;19.20;99.90;;;;;;5054202;28;20329;-86
2022/05/17 10:53:11;;;;;;;3.22;3.03;;;19.30;99.90;;;;;;5054351;28;20363;-86
2022/05/17 10:55:48;;;;;;;7.40;4.00;;;19.50;99.90;;;;;;5053935;28;20209;-86
2022/05/17 10:58:26;;;;;;;4.97;4.50;;;19.40;99.90;;;;;;5053974;28;20241;-88
2022/05/17 11:00:59;;;;;;;4.50;4.07;;;19.00;99.90;;;;;;5054395;28;20233;-87
2022/05/17 11:03:59;;;;;;;5.30;4.57;;;18.50;99.90;;;;;;5054021;28;20244;-88
2022/05/17 11:06:32;;;;;;;4.88;4.47;;;18.30;99.90;;;;;;5052536;28;20250;-87
2022/05/17 11:09:08;;;;;;;4.65;4.28;;;18.10;99.90;;;;;;5053986;28;20205;-88
2022/05/17 11:11:56;;;;;;;4.75;4.35;;;17.70;99.90;;;;;;5053378;28;20209;-88
2022/05/17 11:14:28;;;;;;;8.55;5.05;;;17.60;99.90;;;;;;5053854;28;20256;-88
2022/05/17 11:17:03;;;;;;;7.95;5.85;;;17.40;99.90;;;;;;5053984;28;20225;-88
2022/05/17 11:19:37;;;;;;;6.13;5.00;;;17.40;99.90;;;;;;5053281;28;20312;-88
2022/05/17 11:22:18;;;;;;;5.43;5.03;;;17.20;99.90;;;;;;5053189;28;20216;-89
2022/05/17 11:25:12;;;;;;;5.80;5.30;;;17.10;99.90;;;;;;5053660;28;20290;-88
2022/05/17 11:28:16;;;;;;;5.65;5.15;;;17.10;99.90;;;;;;5053978;28;20208;-88
2022/05/17 11:30:49;;;;;;;11.27;5.93;;;17.10;99.90;;;;;;5053909;28;20292;-88
2022/05/17 11:33:34;;;;;;;6.97;6.22;;;17.10;99.90;;;;;;5053247;28;20229;-88
2022/05/17 11:36:06;;;;;;;5.65;5.25;;;17.20;99.90;;;;;;5054141;28;20251;-89
2022/05/17 11:38:53;;;;;;;7.90;7.15;;;17.30;99.90;;;;;;5054047;28;20275;-88
2022/05/17 11:41:41;;;;;;;7.65;7.03;;;17.50;99.90;;;;;;5054199;28;20283;-88
2022/05/17 11:44:20;;;;;;;8.13;6.22;;;17.60;99.90;;;;;;5054112;28;20225;-88
2022/05/17 11:46:52;;;;;;;7.10;6.40;;;17.90;99.90;;;;;;5053708;28;20288;-87
2022/05/17 11:49:45;;;;;;;6.35;5.68;;;18.10;99.90;;;;;;5053989;28;20205;-88
2022/05/17 11:52:31;;;;;;;6.25;5.70;;;18.30;99.90;;;;;;5052812;28;20275;-87
2022/05/17 11:55:02;;;;;;;6.57;5.88;;;18.60;99.90;;;;;;5051286;28;20296;-88
2022/05/17 11:58:04;;;;;;;13.10;5.60;;;18.70;99.90;;;;;;5053278;28;20206;-87
2022/05/17 12:00:46;;;;;;;5.00;4.60;;;18.70;99.90;;;;;;5053214;28;20254;-87
2022/05/17 12:03:40;;;;;;;6.35;5.05;;;18.80;99.90;;;;;;5052621;28;20313;-87
2022/05/17 12:06:12;;;;;;;5.35;4.85;;;18.80;99.90;;;;;;5052812;28;20202;-87
2022/05/17 12:08:43;;;;;;;7.10;4.47;;;18.80;99.90;;;;;;5052750;28;20217;-86
2022/05/17 12:11:28;;;;;;;5.88;4.60;;;18.80;99.90;;;;;;5052722;28;20230;-87
2022/05/17 12:14:08;;;;;;;5.25;4.43;;;18.60;99.90;;;;;;5052908;28;20291;-88
2022/05/17 12:16:39;;;;;;;4.82;4.43;;;18.50;99.90;;;;;;5052678;28;20285;-87
2022/05/17 12:19:14;;;;;;;6.57;5.03;;;18.30;99.90;;;;;;5052274;28;20253;-88
2022/05/17 12:21:56;;;;;;;5.53;5.13;;;18.10;99.90;;;;;;5053114;28;20308;-87
2022/05/17 12:24:51;;;;;;;6.70;5.55;;;18.00;99.90;;;;;;5052695;28;20225;-87
2022/05/17 12:27:23;;;;;;;5.68;4.93;;;17.90;99.90;;;;;;5053010;28;20301;-87
2022/05/17 12:32:46;;;;;;;6.40;5.82;;;18.00;99.90;;;;;;5052806;28;20240;-87
2022/05/17 12:35:23;;;;;;;6.28;5.65;;;18.10;99.90;;;;;;5053073;28;20297;-87
2022/05/17 12:37:52;;;;;;;7.00;6.05;;;18.30;99.90;;;;;;5052409;28;20288;-87
2022/05/17 12:43:12;;;;;;;6.50;5.90;;;18.60;99.90;;;;;;5052563;28;20226;-87
2022/05/17 12:45:44;;;;;;;6.53;5.93;;;18.70;99.90;;;;;;5052401;28;20208;-86
2022/05/17 12:48:35;;;;;;;4.85;4.45;;;18.70;99.90;;;;;;5052778;28;20202;-86
2022/05/17 12:51:06;;;;;;;4.80;4.40;;;18.70;99.90;;;;;;5052678;28;20201;-86
2022/05/17 12:53:40;;;;;;;4.75;4.35;;;18.80;99.90;;;;;;5052611;28;20308;-86
2022/05/17 12:56:12;;;;;;;6.93;5.18;;;19.30;99.90;;;;;;5052297;28;20182;-86
2022/05/17 12:58:50;;;;;;;4.53;4.15;;;19.50;99.90;;;;;;5052132;28;20221;-87
2022/05/17 13:01:24;;;;;;;4.10;3.78;;;19.80;99.90;;;;;;5052417;28;20209;-86
2022/05/17 13:03:55;;;;;;;5.38;4.45;;;20.00;99.90;;;;;;5052329;28;20291;-86
2022/05/17 13:06:33;;;;;;;4.65;4.25;;;20.00;99.90;;;;;;5051851;28;20236;-87
2022/05/17 13:09:02;;;;;;;4.30;3.92;;;20.00;99.90;;;;;;5052348;28;20201;-87
2022/05/17 13:11:32;;;;;;;4.43;4.10;;;19.90;99.90;;;;;;5051998;28;20205;-87
2022/05/17 13:14:08;;;;;;;5.38;4.05;;;20.00;99.90;;;;;;5052256;28;20225;-86
2022/05/17 13:16:41;;;;;;;5.20;4.68;;;19.80;99.90;;;;;;5052681;28;20265;-85
2022/05/17 13:19:14;;;;;;;4.20;3.90;;;19.70;99.90;;;;;;5052290;28;20281;-86
2022/05/17 13:21:45;;;;;;;6.68;5.20;;;19.80;99.90;;;;;;5051883;28;20269;-86
2022/05/17 13:24:28;;;;;;;5.80;4.63;;;19.70;99.90;;;;;;5051832;28;20229;-86
2022/05/17 13:27:05;;;;;;;5.00;4.60;;;20.10;99.90;;;;;;5052176;28;20301;-86
2022/05/17 13:29:35;;;;;;;4.97;4.57;;;20.30;99.90;;;;;;5052969;28;20201;-87
2022/05/17 13:32:07;;;;;;;4.88;4.47;;;20.20;99.90;;;;;;5055676;28;20202;-87